Time;durP1;ratioP1;P1;durP2;ratioP2;P2;SDS_P1;SDS_P2;PMS_P1;PMS_P2;Temp;Humidity;BMP_temperature;BMP_pressure;BME280_temperature;BME280_humidity;BME280_pressure;Samples;Min_cycle;Max_cycle;Signal;HPM_P1;HPM_P2
2022/05/09 00:00:05;;;;;;;12.35;2.08;;;;;;;-142.75;100.00;78692.88;5013513;28;20018;-70
2022/05/09 00:02:31;;;;;;;9.43;2.80;;;;;;;-142.75;100.00;78688.94;5013611;28;20037;-68
2022/05/09 00:04:57;;;;;;;6.00;2.05;;;;;;;-142.75;100.00;78686.97;5016769;28;20104;-68
2022/05/09 00:07:23;;;;;;;7.15;2.40;;;;;;;-142.75;100.00;78675.16;5033532;28;20104;-68
2022/05/09 00:09:48;;;;;;;9.43;2.75;;;;;;;-142.75;100.00;78673.19;5048407;28;20480;-68
2022/05/09 00:12:13;;;;;;;6.78;2.55;;;;;;;-142.75;100.00;78681.06;5033163;28;20026;-68
2022/05/09 00:14:38;;;;;;;7.85;1.95;;;;;;;-142.75;100.00;78677.13;5033216;28;20044;-71
2022/05/09 00:17:04;;;;;;;7.90;2.22;;;;;;;-142.75;100.00;78686.97;5016325;28;20033;-68
2022/05/09 00:19:30;;;;;;;6.45;1.98;;;;;;;-142.75;100.00;78688.94;5025391;28;20033;-68
2022/05/09 00:21:55;;;;;;;5.18;2.08;;;;;;;-142.75;100.00;78692.88;5024383;28;20045;-71
2022/05/09 00:24:21;;;;;;;13.25;2.58;;;;;;;-142.75;100.00;78688.94;5024137;28;20503;-68
2022/05/09 00:26:48;;;;;;;;;;;;;;;-142.75;100.00;78692.88;5033511;28;20076;-69
2022/05/09 00:29:15;;;;;;;9.90;2.10;;;;;;;-142.75;100.00;78685.00;5015176;28;20390;-72
2022/05/09 00:31:43;;;;;;;10.57;2.70;;;;;;;-142.75;100.00;78683.03;5012973;28;20026;-69
2022/05/09 00:34:10;;;;;;;6.80;2.20;;;;;;;-142.75;100.00;78692.88;5013056;28;20094;-69
2022/05/09 00:36:37;;;;;;;6.90;2.60;;;;;;;-142.75;100.00;78690.91;5014139;28;20025;-69
2022/05/09 00:39:03;;;;;;;4.20;1.83;;;;;;;-142.75;100.00;78690.91;5032501;28;20036;-68
2022/05/09 00:41:28;;;;;;;6.50;1.77;;;;;;;-142.75;100.00;78698.78;5031412;28;20029;-68
2022/05/09 00:44:01;;;;;;;9.93;2.20;;;;;;;-142.75;100.00;78700.75;5032656;28;20601;-69
2022/05/09 00:46:28;;;;;;;6.90;2.20;;;;;;;-142.75;100.00;78698.78;5032618;28;20549;-69
2022/05/09 00:49:02;;;;;;;4.03;1.93;;;;;;;-142.75;100.00;78700.75;5032372;28;20025;-69
2022/05/09 00:51:29;;;;;;;10.20;2.23;;;;;;;-142.75;100.00;78692.88;5014583;28;20534;-71
2022/05/09 00:53:57;;;;;;;5.83;1.67;;;;;;;-142.75;100.00;78706.66;5012807;28;20021;-69
2022/05/09 00:56:29;;;;;;;7.80;2.23;;;;;;;-142.75;100.00;78700.75;5012034;28;20415;-68
2022/05/09 00:59:02;;;;;;;6.60;2.00;;;;;;;-142.75;100.00;78710.59;5012294;28;20037;-68
2022/05/09 01:01:28;;;;;;;8.43;1.85;;;;;;;-142.75;100.00;78728.31;5012589;28;20030;-68
2022/05/09 01:04:04;;;;;;;5.43;1.83;;;;;;;-142.75;100.00;78736.19;5012570;28;20026;-68
2022/05/09 01:06:29;;;;;;;8.97;2.33;;;;;;;-142.75;100.00;78744.09;5012569;28;20030;-68
2022/05/09 01:08:54;;;;;;;8.77;2.03;;;;;;;-142.75;100.00;78740.13;5012155;28;20024;-70
2022/05/09 01:11:23;;;;;;;11.15;2.20;;;;;;;-142.75;100.00;78742.09;5012190;28;20535;-68
2022/05/09 01:13:53;;;;;;;5.43;2.50;;;;;;;-142.75;100.00;78748.03;5012294;28;20152;-68
2022/05/09 01:16:20;;;;;;;9.43;2.67;;;;;;;-142.75;100.00;78751.97;5012522;28;20062;-68
2022/05/09 01:18:48;;;;;;;6.73;2.27;;;;;;;-142.75;100.00;78751.97;5012165;28;20026;-68
2022/05/09 01:21:36;;;;;;;3.87;1.67;;;;;;;-142.75;100.00;78755.91;5017984;28;20030;-69
2022/05/09 01:24:16;;;;;;;8.47;2.50;;;;;;;-142.75;100.00;78751.97;5020407;28;20036;-69
2022/05/09 01:26:41;;;;;;;7.97;2.20;;;;;;;-142.75;100.00;78757.88;5026899;28;20022;-68
2022/05/09 01:29:15;;;;;;;4.72;1.88;;;;;;;-142.75;100.00;78751.97;5011902;28;20026;-69
2022/05/09 01:31:42;;;;;;;7.00;1.57;;;;;;;-142.75;100.00;78767.72;5012354;28;20060;-68
2022/05/09 01:34:09;;;;;;;4.17;2.00;;;;;;;-142.75;100.00;78767.72;5030136;28;20021;-69
2022/05/09 01:36:36;;;;;;;8.00;2.20;;;;;;;-142.75;100.00;78775.59;5031684;28;20079;-69
2022/05/09 01:39:07;;;;;;;8.77;2.40;;;;;;;-142.75;100.00;78767.72;5031483;28;20047;-68
2022/05/09 01:41:38;;;;;;;10.37;2.43;;;;;;;-142.75;100.00;78779.53;5030188;28;20072;-68
2022/05/09 01:44:04;;;;;;;5.07;2.03;;;;;;;-142.75;100.00;78783.47;5031588;28;20044;-69
2022/05/09 01:46:30;;;;;;;;;;;;;;;-142.75;100.00;78783.47;5031970;28;20282;-68
2022/05/09 01:51:42;;;;;;;10.43;2.40;;;;;;;-142.75;100.00;78791.34;5031689;28;20098;-68
2022/05/09 01:54:09;;;;;;;7.47;2.43;;;;;;;-142.75;100.00;78793.31;5031326;28;20052;-70
2022/05/09 01:56:38;;;;;;;6.20;2.17;;;;;;;-142.75;100.00;78799.22;5030124;28;20075;-69
2022/05/09 01:59:06;;;;;;;8.47;2.53;;;;;;;-142.75;100.00;78807.09;5031010;28;20040;-72
2022/05/09 02:02:03;;;;;;;7.47;2.40;;;;;;;-142.75;100.00;78793.31;5029772;28;20033;-68
2022/05/09 02:04:29;;;;;;;9.80;2.65;;;;;;;-142.75;100.00;78801.19;5015570;28;20120;-72
2022/05/09 02:06:56;;;;;;;3.00;1.77;;;;;;;-142.75;100.00;78795.28;5029145;28;20029;-69
2022/05/09 02:09:21;;;;;;;11.10;1.90;;;;;;;-142.75;100.00;78797.25;5030791;28;20491;-69
2022/05/09 02:11:47;;;;;;;8.77;2.58;;;;;;;-142.75;100.00;78789.38;5030859;28;20026;-68
2022/05/09 02:14:12;;;;;;;4.43;2.38;;;;;;;-142.75;100.00;78779.53;5031140;22;20414;-68
2022/05/09 02:16:38;;;;;;;8.93;2.35;;;;;;;-142.75;100.00;78775.59;5010027;28;20041;-69
2022/05/09 02:19:05;;;;;;;11.57;2.30;;;;;;;-142.75;100.00;78773.63;5011148;28;20029;-68
2022/05/09 02:21:30;;;;;;;10.33;2.20;;;;;;;-142.75;100.00;78769.69;5011205;28;20024;-69
2022/05/09 02:23:56;;;;;;;14.60;2.72;;;;;;;-142.75;100.00;78765.75;5011246;28;20450;-69
2022/05/09 02:26:21;;;;;;;9.13;2.95;;;;;;;-142.75;100.00;78761.81;5011153;28;20103;-68
2022/05/09 02:28:47;;;;;;;11.82;2.30;;;;;;;-142.75;100.00;78761.81;5010938;28;20029;-68
2022/05/09 02:31:12;;;;;;;11.50;2.80;;;;;;;-142.75;100.00;78761.81;5009696;28;20021;-68
2022/05/09 02:33:37;;;;;;;8.05;2.15;;;;;;;-142.75;100.00;78759.84;5011062;28;20021;-68
2022/05/09 02:36:03;;;;;;;9.30;2.72;;;;;;;-142.75;100.00;78765.75;5011103;28;20448;-68
2022/05/09 02:38:29;;;;;;;8.48;2.78;;;;;;;-142.75;100.00;78771.66;5010878;28;20041;-68
2022/05/09 02:40:55;;;;;;;9.63;2.27;;;;;;;-142.75;100.00;78779.53;5010992;28;20072;-69
2022/05/09 02:43:21;;;;;;;4.43;2.08;;;;;;;-142.75;100.00;78791.34;5009632;28;20391;-68
2022/05/09 02:45:47;;;;;;;5.53;2.08;;;;;;;-142.75;100.00;78803.16;5010968;28;20092;-68
2022/05/09 02:48:13;;;;;;;7.28;2.17;;;;;;;-142.75;100.00;78814.97;5010606;28;20025;-68
2022/05/09 02:50:38;;;;;;;6.72;2.45;;;;;;;-142.75;100.00;78818.91;5011016;28;20393;-68
2022/05/09 02:53:05;;;;;;;5.25;2.17;;;;;;;-142.75;100.00;78822.88;5010825;28;20021;-68
2022/05/09 02:55:33;;;;;;;7.70;2.40;;;;;;;-142.75;100.00;78826.81;5009672;28;20033;-68
2022/05/09 02:58:00;;;;;;;7.37;2.57;;;;;;;-142.75;100.00;78828.78;5010558;28;20032;-68
2022/05/09 03:00:29;;;;;;;8.17;2.53;;;;;;;-142.75;100.00;78822.88;5010764;28;20079;-68
2022/05/09 03:05:58;;;;;;;9.23;2.13;;;;;;;-142.75;100.00;78832.72;4977700;28;20049;-68
2022/05/09 03:08:24;;;;;;;3.78;2.00;;;;;;;-142.75;100.00;78838.63;4981122;28;20412;-68
2022/05/09 03:10:49;;;;;;;5.68;2.13;;;;;;;-142.75;100.00;78838.63;4987610;28;20100;-68
2022/05/09 03:13:15;;;;;;;7.47;2.55;;;;;;;-142.75;100.00;78838.63;5010589;28;20117;-68
2022/05/09 03:15:43;;;;;;;6.72;2.22;;;;;;;-142.75;100.00;78830.75;5010797;28;20034;-67
2022/05/09 03:18:09;;;;;;;7.03;2.30;;;;;;;-142.75;100.00;78844.53;5010550;28;20022;-68
2022/05/09 03:20:36;;;;;;;8.77;2.42;;;;;;;-142.75;100.00;78846.50;5014541;28;20433;-68
2022/05/09 03:23:04;;;;;;;5.77;2.23;;;;;;;-142.75;100.00;78854.38;5014417;28;20030;-68
2022/05/09 03:25:30;;;;;;;9.27;2.63;;;;;;;-142.75;100.00;78846.50;5014370;28;20033;-68
2022/05/09 03:27:55;;;;;;;7.38;2.67;;;;;;;-142.75;100.00;78852.41;5012943;28;20030;-67
2022/05/09 03:30:20;;;;;;;8.20;3.08;;;;;;;-142.75;100.00;78838.63;5014290;28;20018;-68
2022/05/09 03:32:47;;;;;;;8.45;2.63;;;;;;;-142.75;100.00;78838.63;5014294;28;20049;-68
2022/05/09 03:35:12;;;;;;;9.23;2.57;;;;;;;-142.75;100.00;78840.59;5014268;28;20096;-68
2022/05/09 03:37:38;;;;;;;5.70;2.70;;;;;;;-142.75;100.00;78834.69;5014213;28;20069;-68
2022/05/09 03:40:05;;;;;;;7.22;2.67;;;;;;;-142.75;100.00;78830.75;5013732;28;20047;-68
2022/05/09 03:42:31;;;;;;;9.57;2.50;;;;;;;-142.75;100.00;78824.84;5014006;28;20029;-68
2022/05/09 03:44:56;;;;;;;8.68;2.53;;;;;;;-142.75;100.00;78822.88;5014099;28;20410;-68
2022/05/09 03:47:22;;;;;;;9.18;3.17;;;;;;;-142.75;100.00;78814.97;5014095;28;20088;-67
2022/05/09 03:49:48;;;;;;;5.40;2.42;;;;;;;-142.75;100.00;78814.97;5013629;28;20032;-68
2022/05/09 03:52:14;;;;;;;9.53;2.87;;;;;;;-142.75;100.00;78805.13;5013886;28;20407;-67
2022/05/09 03:54:39;;;;;;;9.85;2.90;;;;;;;-142.75;100.00;78807.09;5015625;28;20109;-68
2022/05/09 03:57:05;;;;;;;6.38;2.45;;;;;;;-142.75;100.00;78807.09;5015904;28;20034;-68
2022/05/09 03:59:31;;;;;;;7.50;3.10;;;;;;;-142.75;100.00;78797.25;5013787;28;20041;-68
2022/05/09 04:01:57;;;;;;;6.37;2.97;;;;;;;-142.75;100.00;78813.00;5013858;28;20057;-68
2022/05/09 04:04:22;;;;;;;10.80;2.63;;;;;;;-142.75;100.00;78811.03;5013826;28;20062;-68
2022/05/09 04:06:51;;;;;;;11.52;2.72;;;;;;;-142.75;100.00;78818.91;5013587;28;20022;-68
2022/05/09 04:09:19;;;;;;;7.13;3.00;;;;;;;-142.75;100.00;78809.06;5013245;28;20038;-68
2022/05/09 04:11:48;;;;;;;8.23;2.90;;;;;;;-142.75;100.00;78807.09;5013622;28;20033;-68
2022/05/09 04:14:15;;;;;;;6.77;2.47;;;;;;;-142.75;100.00;78816.94;5013400;28;20017;-68
2022/05/09 04:16:52;;;;;;;12.77;2.80;;;;;;;-142.75;100.00;78826.81;5013547;28;20471;-67
2022/05/09 04:19:20;;;;;;;6.10;2.87;;;;;;;-142.75;100.00;78832.72;5013306;28;20062;-68
2022/05/09 04:21:46;;;;;;;7.50;3.00;;;;;;;-142.75;100.00;78834.69;5013281;28;20026;-67
2022/05/09 04:24:12;;;;;;;9.93;3.38;;;;;;;-142.75;100.00;78838.63;5013274;28;20056;-68
2022/05/09 04:26:38;;;;;;;11.10;3.38;;;;;;;-142.75;100.00;78830.75;5013345;28;20057;-67
2022/05/09 04:29:03;;;;;;;6.97;2.45;;;;;;;-142.75;100.00;78830.75;5013006;28;20022;-68
2022/05/09 04:31:29;;;;;;;7.63;2.63;;;;;;;-142.75;100.00;78822.88;5012109;28;20105;-68
2022/05/09 04:33:55;;;;;;;11.45;2.55;;;;;;;-142.75;100.00;78826.81;5013032;28;20537;-68
2022/05/09 04:36:22;;;;;;;5.20;2.50;;;;;;;-142.75;100.00;78826.81;5011805;28;20526;-67
2022/05/09 04:38:50;;;;;;;5.23;2.50;;;;;;;-142.75;100.00;78818.91;5012770;28;20022;-68
2022/05/09 04:41:17;;;;;;;6.90;2.73;;;;;;;-142.75;100.00;78811.03;5013160;28;20514;-69
2022/05/09 04:43:42;;;;;;;8.40;2.73;;;;;;;-142.75;100.00;78818.91;5012834;28;20101;-68
2022/05/09 04:46:08;;;;;;;5.68;2.30;;;;;;;-142.75;100.00;78816.94;5013032;28;20030;-68
2022/05/09 04:48:34;;;;;;;9.32;2.72;;;;;;;-142.75;100.00;78813.00;5012536;28;20080;-67
2022/05/09 04:50:59;;;;;;;11.68;3.60;;;;;;;-142.75;100.00;78795.28;5012894;28;20028;-68
2022/05/09 04:53:25;;;;;;;4.20;2.45;;;;;;;-142.75;100.00;78795.28;5012728;28;20076;-67
2022/05/09 04:55:54;;;;;;;8.18;2.47;;;;;;;-142.75;100.00;78787.41;5012839;28;20030;-67
2022/05/09 04:58:20;;;;;;;8.60;3.20;;;;;;;-142.75;100.00;78777.56;5012408;28;20049;-67
2022/05/09 05:00:46;;;;;;;6.83;2.60;;;;;;;-142.75;100.00;78763.78;5012678;28;20032;-68
2022/05/09 05:03:12;;;;;;;7.43;2.75;;;;;;;-142.75;100.00;78759.84;5012368;28;20034;-68
2022/05/09 05:05:38;;;;;;;12.03;3.37;;;;;;;-142.75;100.00;78750.00;5012652;28;20129;-68
2022/05/09 05:08:04;;;;;;;;;;;;;;;-142.75;100.00;78738.16;5012570;28;20021;-67
2022/05/09 05:10:30;;;;;;;8.33;2.93;;;;;;;-142.75;100.00;78732.25;5012469;28;20403;-68
2022/05/09 05:12:57;;;;;;;7.88;3.63;;;;;;;-142.75;100.00;78696.81;5012365;28;20018;-68
2022/05/09 05:15:23;;;;;;;12.13;3.27;;;;;;;-142.75;100.00;78686.97;5012439;28;20025;-68
2022/05/09 05:17:48;;;;;;;8.27;3.00;;;;;;;-142.75;100.00;78657.41;5012066;28;20387;-68
2022/05/09 05:20:15;;;;;;;8.65;3.33;;;;;;;-142.75;100.00;78657.41;5012269;28;20037;-68
2022/05/09 05:22:42;;;;;;;9.07;3.00;;;;;;;-142.75;100.00;78633.78;5012020;28;20124;-68
2022/05/09 05:25:09;;;;;;;11.63;3.80;;;;;;;-142.75;100.00;78602.28;5012206;28;20029;-67
2022/05/09 05:27:34;;;;;;;5.83;2.93;;;;;;;-142.75;100.00;78582.59;5012064;28;20029;-68
2022/05/09 05:30:00;;;;;;;11.25;3.35;;;;;;;-142.75;100.00;78582.59;5011920;28;20055;-68
2022/05/09 05:32:34;;;;;;;9.55;3.38;;;;;;;-142.75;100.00;78562.88;5011800;28;20114;-68
2022/05/09 05:35:00;;;;;;;5.80;2.90;;;;;;;-142.75;100.00;78533.34;5010792;28;20041;-68
2022/05/09 05:37:25;;;;;;;;;;;;;;;-142.75;100.00;78511.69;5012409;28;20699;-68
2022/05/09 05:39:51;;;;;;;11.87;4.47;;;;;;;-142.75;100.00;78486.06;5011725;28;19913;-67
2022/05/09 05:42:18;;;;;;;11.13;3.78;;;;;;;-142.75;100.00;78456.53;5011544;28;20026;-69
2022/05/09 05:44:47;;;;;;;10.23;3.57;;;;;;;-142.75;100.00;78442.75;5010551;28;20399;-68
2022/05/09 05:47:15;;;;;;;11.80;4.13;;;;;;;-142.75;100.00;78413.22;5011662;28;20026;-68
2022/05/09 05:49:41;;;;;;;6.43;3.42;;;;;;;-142.75;100.00;78401.38;5010292;28;20026;-68
2022/05/09 05:52:07;;;;;;;11.90;4.25;;;;;;;-142.75;100.00;78387.59;5011725;28;20096;-68
2022/05/09 05:54:36;;;;;;;8.65;3.50;;;;;;;-142.75;100.00;78363.97;5011805;28;20026;-67
2022/05/09 05:57:03;;;;;;;8.80;3.83;;;;;;;-142.75;100.00;78338.38;5011667;28;20029;-68
2022/05/09 05:59:29;;;;;;;13.50;3.63;;;;;;;-142.75;100.00;78322.63;5011106;28;20028;-69
2022/05/09 06:01:54;;;;;;;11.13;3.38;;;;;;;-142.75;100.00;78314.75;5010460;28;20419;-68
2022/05/09 06:04:20;;;;;;;10.20;3.75;;;;;;;-142.75;100.00;78310.81;5011401;28;20022;-68
2022/05/09 06:06:46;;;;;;;9.93;3.67;;;;;;;-142.75;100.00;78277.31;5011615;28;20029;-70
2022/05/09 06:09:12;;;;;;;8.60;3.80;;;;;;;-142.75;100.00;78267.47;5011204;28;20577;-70
2022/05/09 06:11:39;;;;;;;16.08;3.80;;;;;;;-142.75;100.00;78257.63;5011538;28;20045;-69
2022/05/09 06:14:07;;;;;;;12.85;4.00;;;;;;;-142.75;100.00;78243.84;5011221;28;20018;-68
2022/05/09 06:16:32;;;;;;;9.68;3.42;;;;;;;-142.75;100.00;78241.88;5012031;28;20041;-67
2022/05/09 06:18:59;;;;;;;9.75;3.78;;;;;;;-142.75;100.00;78226.13;5010677;28;20526;-67
2022/05/09 06:21:25;;;;;;;12.23;3.78;;;;;;;-142.75;100.00;78220.22;5011282;28;20029;-69
2022/05/09 06:23:50;;;;;;;11.65;4.05;;;;;;;-142.75;100.00;78202.50;5009841;28;20472;-67
2022/05/09 06:26:15;;;;;;;7.72;3.47;;;;;;;-142.75;100.00;78178.84;5010284;28;20068;-68
2022/05/09 06:28:41;;;;;;;11.18;3.58;;;;;;;-142.75;100.00;78151.28;5009725;28;20025;-67
2022/05/09 06:31:06;;;;;;;9.45;3.78;;;;;;;-142.75;100.00;78109.94;5005102;28;20026;-67
2022/05/09 06:33:32;;;;;;;13.48;4.07;;;;;;;-142.75;100.00;78092.22;5002910;28;20018;-68
2022/05/09 06:35:59;;;;;;;10.80;3.45;;;;;;;-142.75;100.00;78060.72;5005470;28;20087;-68
2022/05/09 06:38:27;;;;;;;9.57;3.55;;;;;;;-142.75;100.00;78029.19;5008193;28;20111;-67
2022/05/09 06:40:53;;;;;;;10.73;3.80;;;;;;;-142.75;100.00;78009.50;5009880;28;20056;-67
2022/05/09 06:43:19;;;;;;;;;;;;;;;-142.75;100.00;77995.72;5009264;28;20026;-67
2022/05/09 06:45:45;;;;;;;10.75;3.35;;;;;;;-142.75;100.00;77970.13;5008362;28;20318;-67
2022/05/09 06:48:10;;;;;;;14.05;4.05;;;;;;;-142.75;100.00;77940.59;5006249;28;20108;-67
2022/05/09 06:50:36;;;;;;;;;;;;;;;-142.75;100.00;77903.16;5007054;28;20025;-68
2022/05/09 06:53:03;;;;;;;8.10;2.92;;;;;;;-142.75;100.00;77901.19;5006272;28;19917;-68
2022/05/09 06:55:28;;;;;;;9.77;3.70;;;;;;;-142.75;100.00;77873.63;5008832;28;20187;-67
2022/05/09 06:57:53;;;;;;;9.68;3.40;;;;;;;-142.75;100.00;77863.78;5011380;28;20096;-68
2022/05/09 07:00:20;;;;;;;;;;;;;;;-142.75;100.00;77887.41;5012458;28;20021;-68
2022/05/09 07:02:46;;;;;;;15.15;3.35;;;;;;;-142.75;100.00;77842.13;5011813;28;20263;-67
2022/05/09 07:05:15;;;;;;;11.65;3.50;;;;;;;-142.75;100.00;77818.50;5011623;28;20037;-68
2022/05/09 07:07:41;;;;;;;8.63;3.90;;;;;;;-142.75;100.00;77790.94;5012374;28;20067;-67
2022/05/09 07:10:07;;;;;;;9.30;3.47;;;;;;;-142.75;100.00;77755.50;5013598;28;20029;-68
2022/05/09 07:12:39;;;;;;;;;;;;;;;-142.75;100.00;77783.06;5005521;28;20030;-67
2022/05/09 07:15:05;;;;;;;11.90;3.45;;;;;;;-142.75;100.00;77804.72;5009030;28;19965;-68
2022/05/09 07:17:30;;;;;;;9.23;3.30;;;;;;;-142.75;100.00;77773.22;5013664;28;20119;-68
2022/05/09 07:19:56;;;;;;;;;;;;;;;-142.75;100.00;77735.81;5012288;28;20479;-67
2022/05/09 07:22:21;;;;;;;10.18;3.60;;;;;;;-142.75;100.00;77706.25;5013376;28;19921;-68
2022/05/09 07:24:46;;;;;;;;;;;;;;;-142.75;100.00;77692.47;5013806;28;20510;-67
2022/05/09 07:27:11;;;;;;;8.48;3.42;;;;;;;-142.75;100.00;77674.75;5013284;28;19967;-67
2022/05/09 07:29:36;;;;;;;;;;;;;;;-142.75;100.00;77655.06;5012530;28;20105;-68
2022/05/09 07:32:02;;;;;;;8.63;3.30;;;;;;;-142.75;100.00;77613.72;5009500;28;19913;-68
2022/05/09 07:34:27;;;;;;;;;;;;;;;-142.75;100.00;77594.03;5006777;28;20488;-68
2022/05/09 07:36:52;;;;;;;10.18;2.78;;;;;;;-142.75;100.00;77594.03;5003415;28;19959;-68
2022/05/09 07:39:18;;;;;;;;;;;;;;;-142.75;100.00;77572.38;5012890;28;20446;-68
2022/05/09 07:41:43;;;;;;;10.73;3.53;;;;;;;-142.75;100.00;77523.16;5013475;28;20459;-67
2022/05/09 07:44:08;;;;;;;;;;;;;;;-142.75;100.00;77473.94;5014511;28;20026;-68
2022/05/09 07:46:34;;;;;;;13.18;3.72;;;;;;;-142.75;100.00;77452.25;5014151;28;19936;-67
2022/05/09 07:49:00;;;;;;;;;;;;;;;-142.75;100.00;77410.91;5012785;28;20470;-68
2022/05/09 07:51:25;;;;;;;12.32;3.90;;;;;;;-142.75;100.00;77395.16;5012630;28;19939;-67
2022/05/09 07:53:51;;;;;;;;;;;;;;;-142.75;100.00;77375.47;5014429;28;20030;-66
2022/05/09 07:56:17;;;;;;;6.80;3.13;;;;;;;-142.75;100.00;77399.09;5010110;28;19968;-68
2022/05/09 07:58:43;;;;;;;;;;;;;;;-142.75;100.00;77347.91;5012811;28;20068;-68
2022/05/09 08:01:08;;;;;;;9.63;3.45;;;;;;;-142.75;100.00;77314.44;5013815;28;19913;-68
2022/05/09 08:03:35;;;;;;;;;;;;;;;-142.75;100.00;77282.94;5013574;28;20498;-69
2022/05/09 08:06:02;;;;;;;11.30;4.07;;;;;;;-142.75;99.91;77247.50;5013644;28;19920;-67
2022/05/09 08:08:31;;;;;;;11.23;3.53;;;;;;;-142.75;95.55;77259.31;5013286;28;20442;-68
2022/05/09 08:10:58;;;;;;;16.13;4.45;;;;;;;-142.75;93.85;77216.00;5013529;28;20034;-69
2022/05/09 08:13:25;;;;;;;8.85;3.65;;;;;;;-142.75;90.40;77210.09;5030980;22;20024;-66
2022/05/09 08:15:51;;;;;;;13.40;4.32;;;;;;;-142.75;88.57;77202.22;5010812;28;20061;-66
2022/05/09 08:18:19;;;;;;;14.50;3.70;;;;;;;-142.75;89.53;77190.41;5020460;28;20025;-68
2022/05/09 08:20:45;;;;;;;10.73;3.25;;;;;;;-142.75;88.63;77164.81;5032860;28;20017;-69
2022/05/09 08:23:15;;;;;;;10.55;4.10;;;;;;;-142.75;86.96;77151.03;5033005;28;20044;-69
2022/05/09 08:25:43;;;;;;;10.60;3.58;;;;;;;-142.75;79.72;77115.59;5033152;28;20068;-69
2022/05/09 08:28:08;;;;;;;9.23;3.42;;;;;;;-142.75;79.00;77121.50;5031493;28;20033;-69
2022/05/09 08:30:35;;;;;;;11.85;3.63;;;;;;;-142.75;79.05;77082.13;5032990;28;20513;-68
2022/05/09 08:33:04;;;;;;;9.75;3.95;;;;;;;-142.75;75.33;77070.31;5031918;28;20435;-68
2022/05/09 08:35:30;;;;;;;12.07;4.25;;;;;;;-142.75;76.02;77042.75;5032774;28;20057;-69
2022/05/09 08:37:55;;;;;;;10.80;3.88;;;;;;;-142.75;78.89;77042.75;5032692;28;20516;-68
2022/05/09 08:40:32;;;;;;;10.55;3.47;;;;;;;-142.75;77.80;77034.88;5032731;28;20026;-69
2022/05/09 08:43:33;;;;;;;10.50;3.80;;;;;;;-142.75;75.51;76997.47;5032739;28;20024;-68
2022/05/09 08:46:05;;;;;;;9.50;3.92;;;;;;;-142.75;74.81;76952.19;5032694;28;20037;-69
2022/05/09 08:49:05;;;;;;;7.75;3.20;;;;;;;-142.75;69.29;76932.50;5030936;28;20525;-69
2022/05/09 08:52:29;;;;;;;12.43;3.40;;;;;;;-142.75;69.60;76924.63;5010398;28;20088;-68
2022/05/09 08:54:55;;;;;;;11.82;3.83;;;;;;;-142.75;69.07;76954.16;4990745;28;20033;-69
2022/05/09 08:57:24;;;;;;;11.85;3.85;;;;;;;-142.75;70.39;76930.53;4990808;28;20037;-68
2022/05/09 08:59:58;;;;;;;10.75;3.70;;;;;;;-142.75;69.17;76926.59;5010644;28;20608;-69
2022/05/09 09:02:37;;;;;;;13.05;4.03;;;;;;;-142.75;69.28;76901.00;5032397;28;20049;-69
2022/05/09 09:05:03;;;;;;;8.45;4.00;;;;;;;-142.75;66.64;76838.00;5032286;28;20104;-69
2022/05/09 09:08:01;;;;;;;9.60;3.60;;;;;;;-142.75;67.95;76798.66;5032260;28;20029;-69
2022/05/09 09:10:35;;;;;;;10.15;3.17;;;;;;;-142.75;63.77;76775.03;5032383;28;20059;-69
2022/05/09 09:13:24;;;;;;;9.10;3.53;;;;;;;-142.75;65.15;76838.00;5032298;28;20100;-69
2022/05/09 09:16:08;;;;;;;13.60;3.50;;;;;;;-142.75;65.22;76818.31;5031914;28;20035;-68
2022/05/09 09:18:48;;;;;;;9.50;3.25;;;;;;;-142.75;60.66;76788.81;5030540;28;20017;-69
2022/05/09 09:21:41;;;;;;;10.75;3.60;;;;;;;-142.75;61.50;76802.56;5032173;28;20071;-67
2022/05/09 09:24:32;;;;;;;7.53;2.90;;;;;;;-142.75;58.98;76767.16;5031930;28;20096;-67
2022/05/09 09:27:13;;;;;;;10.95;3.17;;;;;;;-142.75;57.48;76706.13;5031741;28;20044;-68
2022/05/09 09:29:54;;;;;;;9.85;3.17;;;;;;;-142.75;54.10;76664.78;5031602;28;20071;-68
2022/05/09 09:32:20;;;;;;;10.27;2.58;;;;;;;-142.75;53.72;76660.84;5031800;28;20060;-68
2022/05/09 09:35:06;;;;;;;8.30;2.88;;;;;;;-142.75;51.93;76698.25;5030349;28;20033;-69
2022/05/09 09:37:55;;;;;;;12.32;3.38;;;;;;;-142.75;55.27;76664.78;5014342;28;20606;-69
2022/05/09 09:40:21;;;;;;;8.00;2.65;;;;;;;-142.75;56.05;76649.03;5011698;28;20053;-69
2022/05/09 09:42:46;;;;;;;9.80;2.80;;;;;;;-142.75;51.88;76654.94;5011442;28;20056;-68
2022/05/09 09:45:19;;;;;;;10.20;3.00;;;;;;;-142.75;55.61;76647.06;5011155;28;20088;-68
2022/05/09 09:47:45;;;;;;;8.45;3.33;;;;;;;-142.75;55.57;76645.09;5009957;28;20415;-68
2022/05/09 09:50:19;;;;;;;9.77;2.97;;;;;;;-142.75;56.51;76605.72;5010588;28;20044;-69
2022/05/09 09:52:56;;;;;;;5.53;2.38;;;;;;;-142.75;53.10;76576.19;5009960;28;20032;-68
2022/05/09 09:55:29;;;;;;;7.53;2.88;;;;;;;-142.75;54.09;76639.19;5009137;28;20509;-69
2022/05/09 09:57:57;;;;;;;11.00;3.15;;;;;;;-142.75;56.85;76554.53;5009434;28;20394;-69
2022/05/09 10:00:35;;;;;;;7.97;2.40;;;;;;;-142.75;54.17;76528.97;5011586;28;20036;-69
2022/05/09 10:03:22;;;;;;;8.73;2.63;;;;;;;-142.75;48.59;76523.06;5010863;28;20060;-68
2022/05/09 10:05:50;;;;;;;12.63;2.47;;;;;;;-142.75;51.96;76475.81;5009757;28;20129;-69
2022/05/09 10:08:19;;;;;;;7.50;2.15;;;;;;;-142.75;47.79;76469.91;5011179;28;20029;-68
2022/05/09 10:11:25;;;;;;;7.18;2.00;;;;;;;-142.75;46.50;76436.44;5009665;28;20083;-69
2022/05/09 10:13:56;;;;;;;7.97;2.28;;;;;;;-142.75;45.60;76448.25;5001275;28;20118;-68
2022/05/09 10:16:27;;;;;;;7.90;2.65;;;;;;;-142.75;45.24;76436.44;5011103;28;20030;-69
2022/05/09 10:18:53;;;;;;;6.88;2.20;;;;;;;-142.75;46.92;76430.53;5009437;28;20022;-69
2022/05/09 10:24:49;;;;;;;6.32;2.00;;;;;;;-142.75;47.30;76410.84;5011306;28;20040;-68
2022/05/09 10:27:20;;;;;;;9.10;2.45;;;;;;;-142.75;44.90;76456.13;5023084;28;20541;-68
2022/05/09 10:29:48;;;;;;;9.45;1.92;;;;;;;-142.75;49.57;76454.16;5030013;28;20475;-68
2022/05/09 10:32:18;;;;;;;5.95;1.75;;;;;;;-142.75;45.47;76412.81;5030802;28;20021;-69
2022/05/09 10:34:57;;;;;;;7.90;2.10;;;;;;;-142.75;43.38;76347.84;5030741;28;20025;-68
2022/05/09 10:37:30;;;;;;;6.25;2.08;;;;;;;-142.75;39.83;76371.47;5030635;28;20029;-68
2022/05/09 10:40:07;;;;;;;4.43;2.08;;;;;;;-142.75;40.31;76389.19;5009914;28;20029;-68
2022/05/09 10:42:46;;;;;;;9.88;1.85;;;;;;;-142.75;45.30;76469.91;5030649;28;20491;-69
2022/05/09 10:45:24;;;;;;;6.32;2.40;;;;;;;-142.75;41.53;76381.31;5012071;28;20033;-69
2022/05/09 10:47:53;;;;;;;7.68;2.30;;;;;;;-142.75;40.95;76341.97;5010842;28;20036;-68
2022/05/09 10:50:41;;;;;;;8.38;2.08;;;;;;;-142.75;44.42;76381.31;5010981;28;20411;-69
2022/05/09 10:53:16;;;;;;;7.18;2.05;;;;;;;-142.75;41.25;76397.06;5011008;28;20061;-68
2022/05/09 10:56:03;;;;;;;9.65;1.65;;;;;;;-142.75;46.25;76393.13;5010908;28;20376;-68
2022/05/09 10:58:57;;;;;;;5.43;2.00;;;;;;;-142.75;42.29;76367.53;5010683;28;20038;-68
2022/05/09 11:01:32;;;;;;;7.40;1.90;;;;;;;-142.75;45.63;76353.78;5009621;28;20038;-68
2022/05/09 11:03:58;;;;;;;6.45;1.98;;;;;;;-142.75;41.86;76353.78;5010786;28;20475;-68
2022/05/09 11:06:31;;;;;;;5.40;2.13;;;;;;;-142.75;39.84;76361.63;5010785;28;20030;-68
2022/05/09 11:09:03;;;;;;;6.68;2.05;;;;;;;-142.75;42.54;76357.69;5010807;28;20052;-68
2022/05/09 11:11:52;;;;;;;7.93;2.08;;;;;;;-142.75;43.16;76341.97;5010935;28;20123;-69
2022/05/09 11:14:40;;;;;;;8.25;2.08;;;;;;;-142.75;42.59;76345.91;5009283;28;20026;-68
2022/05/09 11:17:38;;;;;;;9.55;2.38;;;;;;;-142.75;39.59;76389.19;5010827;28;20511;-68
2022/05/09 11:20:26;;;;;;;4.90;2.03;;;;;;;-142.75;43.59;76381.31;5010489;28;20029;-68
2022/05/09 11:23:10;;;;;;;9.60;2.10;;;;;;;-142.75;44.56;76355.72;5003920;28;20399;-68
2022/05/09 11:25:51;;;;;;;10.55;2.20;;;;;;;-142.75;39.13;76320.31;5010559;28;20054;-68
2022/05/09 11:28:40;;;;;;;5.65;1.80;;;;;;;-142.75;40.73;76320.31;5010295;28;20080;-68
2022/05/09 11:31:44;;;;;;;7.32;1.77;;;;;;;-142.75;38.08;76263.22;5009335;28;20021;-69
2022/05/09 11:34:50;;;;;;;6.25;1.80;;;;;;;-142.75;40.23;76241.56;4969093;28;20085;-68